Station: Cessnock Airport  

  Atmospheric Gas Attenuation - ITU Rec 676-11   ----------------- dB/100km -----------------
Date Time Temp RH % AH g/m3 Dew Point Wind Direction Speed kph Gust kph Barometer mB Rainfall Since 9am 24GHz 47GHz 76GHz 122GHz 134GHz 241GHz
08/05 12:30 19.7 35 5.94 3.8 19 28 1017.2 0 13.7 20.6 27.8 72.3 60.6 206.6
08/05 12:20 19.8 37 6.32 4.7 13 17 1017.4 0 14.5 21.1 29.0 75.6 64.8 221.3
08/05 12:10 18.4 39 6.13 4.2 17 20 1017.7 0 14.2 21.2 28.9 75.2 63.8 217.5
08/05 12:00 18.1 39 6.03 3.9 22 33 1018 0 14.0 21.1 28.6 74.6 62.9 214.4
08/05 11:50 17.8 39 5.92 3.7 24 30 1018.2 0 13.7 21.0 28.4 73.9 61.9 210.8
08/05 11:40 17.8 40 6.07 4 15 22 1018.5 0 14.1 21.2 28.9 75.3 63.6 216.9
08/05 11:30 17.2 41 6 3.8 22 32 1018.6 0 13.9 21.3 28.9 75.2 63.3 215.7
08/05 11:20 17.3 42 6.19 4.3 17 19 1018.9 0 14.3 21.5 29.5 76.9 65.4 223.1
08/05 11:10 16.4 43 6 3.8 17 19 1019 0 14.0 21.5 29.2 76.0 63.9 217.9
08/05 11:00 16 43 5.86 3.4 24 32 1019.2 0 13.7 21.4 28.8 75.0 62.6 213.3
08/05 10:50 16 43 5.86 3.4 22 28 1019.4 0 13.7 21.4 28.8 75.1 62.6 213.3
08/05 10:40 15.4 44 5.78 3.2 20 28 1019.6 0 13.5 21.4 28.8 74.9 62.2 211.6
08/05 10:30 15.3 45 5.88 3.5 24 32 1019.6 0 13.7 21.6 29.1 75.9 63.4 216.0
08/05 10:20 14.9 46 5.86 3.4 24 30 1019.6 0 13.7 21.6 29.2 76.1 63.5 216.2
08/05 10:10 14.6 46 5.76 3.1 22 26 1019.7 0 13.5 21.6 29.0 75.4 62.6 212.9
08/05 10:00 13.8 48 5.72 3 26 35 1019.8 0 13.5 21.7 29.1 75.8 62.7 213.4
08/05 09:50 13.5 49 5.73 3 26 32 1020 0 13.5 21.8 29.3 76.2 63.1 214.6
08/05 09:40 12.9 49 5.52 2.5 24 32 1020.2 0 13.1 21.6 28.7 74.7 61.1 207.4
08/05 09:30 12.5 49 5.39 2.1 22 32 1020.1 0 12.8 21.5 28.4 73.9 59.8 203.0
08/05 09:20 12 51 5.44 2.2 26 32 1020.2 0 12.9 21.7 28.8 74.8 60.8 206.4
08/05 09:10 12 52 5.54 2.5 20 24 1020.1 0 13.1 21.9 29.1 75.8 62.0 210.6
08/05 09:00 11.3 53 5.41 2.1 26 35 1020.2 0 12.9 21.9 28.9 75.2 61.0 206.9
08/05 08:50 11.3 54 5.51 2.3 20 24 1020.4 0 13.1 22.0 29.3 76.2 62.2 211.2
08/05 08:40 10.7 55 5.4 2 24 30 1020.2 0 12.9 22.0 29.1 75.6 61.3 208.0
08/05 08:30 10.3 56 5.36 1.9 22 32 1020.1 0 12.8 22.0 29.1 75.6 61.1 207.3
08/05 08:20 9.9 58 5.42 2 24 26 1020.3 0 13.0 22.2 29.4 76.6 62.2 211.0
08/05 08:10 9.5 59 5.37 1.9 20 26 1020.3 0 12.9 22.2 29.4 76.5 61.9 209.8
08/05 08:00 9.2 60 5.36 1.9 24 39 1020.2 0 12.9 22.3 29.5 76.7 62.0 210.2
08/05 07:50 8.6 61 5.24 1.5 28 35 1019.9 0 12.6 22.2 29.2 76.0 61.0 206.4
08/05 07:40 8.4 62 5.26 1.6 20 24 1019.9 0 12.7 22.3 29.4 76.4 61.4 207.8
08/05 07:30 8 62 5.13 1.2 24 39 1019.7 0 12.4 22.2 29.0 75.4 60.0 203.1
08/05 07:20 7.6 64 5.16 1.2 20 24 1019.8 0 12.5 22.4 29.3 76.1 60.7 205.5
08/05 07:10 7.2 66 5.18 1.3 19 28 1020 0 12.5 22.5 29.5 76.7 61.3 207.4
08/05 07:00 7.1 66 5.15 1.2 19 28 1020.1 0 12.5 22.5 29.4 76.5 61.0 206.4
08/05 06:50 7.1 65 5.07 1 19 24 1020.1 0 12.3 22.4 29.1 75.7 60.0 202.8
08/05 06:40 7 66 5.12 1.1 22 26 1020.1 0 12.4 22.5 29.3 76.3 60.7 205.3
08/05 06:30 6.9 65 5.01 0.8 20 28 1020 0 12.2 22.3 29.0 75.3 59.4 200.6
08/05 06:20 6.9 66 5.08 1 19 24 1020 0 12.3 22.4 29.2 76.0 60.3 203.7
08/05 06:10 6.8 66 5.05 0.9 15 20 1020 0 12.3 22.4 29.1 75.8 60.0 202.7
08/05 06:00 6.8 66 5.05 0.9 17 24 1019.9 0 12.3 22.4 29.1 75.8 59.9 202.6
08/05 05:50 6.8 66 5.05 0.9 19 20 1019.8 0 12.3 22.4 29.1 75.8 59.9 202.6
08/05 05:40 6.6 66 4.99 0.7 13 15 1019.8 0 12.2 22.3 29.0 75.4 59.3 200.5
08/05 05:30 6.4 67 4.99 0.7 19 26 1019.4 0 12.2 22.4 29.0 75.5 59.5 200.9
08/05 05:20 6.5 66 4.95 0.6 17 20 1019.5 0 12.1 22.3 28.8 75.0 58.9 198.9
08/05 05:10 6.8 65 4.97 0.7 20 24 1019.3 0 12.1 22.2 28.8 74.9 58.9 199.0
08/05 05:00 6.8 65 4.97 0.7 17 24 1019.5 0 12.1 22.3 28.8 74.9 58.9 199.0
08/05 04:50 6.5 65 4.88 0.4 13 15 1019.4 0 11.9 22.2 28.6 74.3 58.0 195.8
08/05 04:40 6.6 65 4.91 0.5 15 17 1019.5 0 12.0 22.2 28.7 74.5 58.3 196.9
08/05 04:30 6.7 64 4.87 0.4 15 22 1019.5 0 11.9 22.1 28.5 74.0 57.7 194.8
08/05 04:20 7 63 4.88 0.5 17 22 1019.4 0 11.9 22.1 28.4 73.8 57.6 194.5
08/05 04:10 6.6 63 4.76 0.1 13 19 1019.6 0 11.7 22.0 28.1 73.0 56.4 190.2
08/05 04:00 6.8 62 4.74 0 15 20 1019.5 0 11.6 21.9 27.9 72.6 56.0 188.9
08/05 03:50 7 61 4.73 0 13 15 1019.6 0 11.6 21.8 27.8 72.3 55.8 188.0
08/05 03:40 7.1 61 4.76 0.1 15 17 1019.5 0 11.7 21.9 27.9 72.5 56.1 189.0
08/05 03:30 7.2 60 4.71 0 13 19 1019.6 0 11.5 21.8 27.7 71.9 55.4 186.6
08/05 03:20 7.1 60 4.68 -0.1 11 13 1019.6 0 11.5 21.7 27.6 71.7 55.1 185.6
08/05 03:10 7 59 4.57 -0.4 11 15 1019.7 0 11.2 21.6 27.2 70.7 53.8 181.0
08/05 03:00 7.7 57 4.62 -0.3 13 20 1019.7 0 11.3 21.5 27.2 70.6 53.9 181.6
08/05 02:50 8 54 4.47 -0.7 13 15 1019.8 0 11.0 21.2 26.5 68.9 51.9 174.5
08/05 02:40 7.5 55 4.4 -0.9 9 11 1019.8 0 10.9 21.2 26.5 68.6 51.4 172.6
08/05 02:30 8.7 51 4.41 -0.9 9 17 1019.9 0 10.9 21.0 26.1 67.7 50.7 170.5
08/05 02:20 9.2 50 4.47 -0.7 6 7 1020 0 11.0 21.0 26.2 67.9 51.1 172.0
08/05 02:10 9.4 50 4.52 -0.5 9 11 1020 0 11.1 21.0 26.3 68.2 51.6 173.7
08/05 02:00 9.9 48 4.48 -0.6 11 20 1020.1 0 11.0 20.8 26.0 67.4 50.8 170.9
08/05 01:50 9.9 47 4.39 -0.9 7 13 1020.1 0 10.8 20.7 25.7 66.5 49.7 167.2
08/05 01:40 10 47 4.42 -0.8 11 19 1020.1 0 10.8 20.7 25.7 66.7 50.0 168.2
08/05 01:30 9.9 47 4.39 -0.9 13 20 1020.1 0 10.8 20.7 25.7 66.5 49.7 167.2
08/05 01:20 10 47 4.42 -0.8 13 17 1020 0 10.8 20.7 25.7 66.7 50.0 168.2
08/05 01:10 10.1 46 4.35 -1 17 20 1020 0 10.7 20.6 25.5 66.0 49.1 165.1
08/05 01:00 10.1 46 4.35 -1 17 30 1020.1 0 10.7 20.6 25.5 66.0 49.2 165.1
08/05 00:50 10 46 4.32 -1.1 13 19 1020.2 0 10.6 20.6 25.4 65.8 48.9 164.1
08/05 00:40 10.3 46 4.41 -0.8 19 24 1020.2 0 10.8 20.6 25.6 66.4 49.7 167.2
08/05 00:20 10.1 46 4.35 -1 17 19 1020.2 0 10.7 20.6 25.5 66.0 49.2 165.1
08/05 00:10 10.2 46 4.38 -0.9 19 22 1020.2 0 10.7 20.6 25.5 66.2 49.4 166.2
08/05 00:00 10.3 46 4.41 -0.8 19 30 1020.2 0 10.8 20.6 25.6 66.4 49.7 167.2
07/05 23:50 10.3 45 4.31 -1.1 19 24 1020.1 0 10.6 20.5 25.3 65.4 48.6 163.1
07/05 23:40 10.2 46 4.38 -0.9 20 26 1020.1 0 10.7 20.6 25.5 66.2 49.4 166.2
07/05 23:30 10.3 45 4.31 -1.1 19 28 1020.1 0 10.6 20.5 25.3 65.4 48.6 163.1
07/05 23:20 10.4 45 4.34 -1 17 24 1020.2 0 10.7 20.5 25.3 65.6 48.9 164.1
07/05 23:10 10.4 44 4.24 -1.3 15 20 1020.1 0 10.4 20.4 25.0 64.7 47.7 160.0
07/05 23:00 10.6 44 4.3 -1.1 17 32 1020 0 10.6 20.4 25.1 65.1 48.3 162.0
07/05 22:50 10.3 45 4.31 -1.1 15 19 1020.2 0 10.6 20.5 25.3 65.4 48.6 163.1
07/05 22:40 10.2 45 4.28 -1.2 11 15 1020.3 0 10.5 20.5 25.2 65.2 48.3 162.1
07/05 22:30 10.3 45 4.31 -1.1 11 22 1020.3 0 10.6 20.5 25.3 65.4 48.6 163.1
07/05 22:20 10.3 44 4.21 -1.4 9 11 1020.4 0 10.4 20.3 24.9 64.5 47.4 159.0
07/05 22:10 10.6 43 4.2 -1.4 9 11 1020.3 0 10.4 20.3 24.8 64.2 47.1 158.0
07/05 22:00 10.6 43 4.2 -1.4 9 17 1020.4 0 10.4 20.3 24.8 64.2 47.1 158.0
07/05 21:50 11 42 4.2 -1.4 13 17 1020.4 0 10.3 20.2 24.7 63.9 46.9 157.2
07/05 21:40 11 42 4.2 -1.4 11 15 1020.4 0 10.3 20.2 24.7 63.9 46.9 157.2
07/05 21:30 11.2 41 4.16 -1.5 13 26 1020.4 0 10.3 20.1 24.5 63.3 46.3 155.2
07/05 21:20 11.1 41 4.13 -1.6 13 17 1020.2 0 10.2 20.1 24.4 63.1 46.0 154.2
07/05 21:10 11.3 40 4.08 -1.8 17 19 1020.1 0 10.1 19.9 24.2 62.5 45.3 151.8
07/05 21:00 11.3 40 4.08 -1.8 15 26 1019.9 0 10.1 19.9 24.1 62.5 45.3 151.8
07/05 20:50 11.3 39 3.98 -2.1 13 17 1019.8 0 9.9 19.8 23.8 61.5 44.2 147.7
07/05 20:40 11.5 39 4.03 -2 19 24 1019.7 0 10.0 19.8 23.9 61.8 44.6 149.4
07/05 20:30 11.6 38 3.95 -2.2 17 26 1019.7 0 9.8 19.7 23.6 61.0 43.7 146.0
07/05 20:20 11.9 37 3.92 -2.3 15 22 1019.6 0 9.7 19.6 23.4 60.5 43.2 144.2
07/05 20:10 11.8 37 3.89 -2.4 17 19 1019.6 0 9.7 19.5 23.3 60.3 42.9 143.2
07/05 20:00 12 36 3.84 -2.6 17 28 1019.6 0 9.6 19.4 23.1 59.7 42.2 140.9
07/05 19:50 12.2 36 3.89 -2.4 19 24 1019.7 0 9.7 19.5 23.2 60.0 42.7 142.5

Last Refresh: 08-May-2026 12:08:30

Bureau of Meteorology